Tanais — UBLF2 — position and weather

sailwx.info

Track history (hours):
 
Tides and Currents Weather Stations Pressure Air Temp Water Temp Dewpoint Dewpoint Depression Visibility Wind Speed Wind Dir Waves Ship Positions

Tanais

Last reported at 2017-Dec-08 08:54 UTC. Time now 2017-Dec-17 21:55 UTC.
Position N 45°12' E 036°28'.
Warning: this ship's position is 9 days out of date.

Length 139 m; draft 3.9 m.

Type: Cargo ship. MMSI: 273330220.

Date/timePositionNaut miles runAvg speedWind from/ knotsBaromVisibWave heightAir tempDewpointWater temp
2017-Dec-08 08:54N 45°12' E 036°28'3 6.7
2017-Dec-08 08:25N 45°15' E 036°28'3 6.1
2017-Dec-08 07:56N 45°18' E 036°29'3 5.9
2017-Dec-08 07:30N 45°19' E 036°32'3 6.2
2017-Dec-08 07:00N 45°20' E 036°36'3 6.0
2017-Dec-08 06:30N 45°22' E 036°40'3 6.2
2017-Dec-08 06:00N 45°25' E 036°41'2 4.7
2017-Dec-08 05:30N 45°27' E 036°40'2 3.0
2017-Dec-08 04:59N 45°29' E 036°39'0 0.0
2017-Dec-08 04:29N 45°29' E 036°39'0 0.0
2017-Dec-08 03:56N 45°29' E 036°39'0 0.0
2017-Dec-08 03:26N 45°29' E 036°39'0 0.0
2017-Dec-08 02:59N 45°29' E 036°39'0 0.0
2017-Dec-08 02:29N 45°29' E 036°39'0 0.0
2017-Dec-08 01:59N 45°29' E 036°39'0 0.0
2017-Dec-08 01:23N 45°29' E 036°39'0 0.0
2017-Dec-08 00:59N 45°29' E 036°39'0 0.0
2017-Dec-08 00:26N 45°29' E 036°39'0 0.0
2017-Dec-07 23:59N 45°29' E 036°39'0 0.0
2017-Dec-07 23:29N 45°29' E 036°39'0 0.0
2017-Dec-07 22:59N 45°29' E 036°39'0 0.0
2017-Dec-07 22:29N 45°29' E 036°39'0 0.0
2017-Dec-07 21:56N 45°29' E 036°39'0 0.0
2017-Dec-07 21:29N 45°29' E 036°39'0 0.0
2017-Dec-07 20:59N 45°29' E 036°39'0 0.0
2017-Dec-07 20:30N 45°29' E 036°39'0 0.0
2017-Dec-07 20:00N 45°29' E 036°39'0 0.0
2017-Dec-07 19:30N 45°29' E 036°39'0 0.0
2017-Dec-07 18:59N 45°29' E 036°39'0 0.0
2017-Dec-07 18:29N 45°29' E 036°39'0 0.0
2017-Dec-07 17:59N 45°29' E 036°39'0 0.0
2017-Dec-07 17:26N 45°29' E 036°39'0 0.0
2017-Dec-07 16:58N 45°29' E 036°39'0 0.0
2017-Dec-07 16:28N 45°29' E 036°39'0 0.0
2017-Dec-07 15:58N 45°29' E 036°39'0 0.0
2017-Dec-07 15:28N 45°29' E 036°39'0 0.0
2017-Dec-07 14:58N 45°29' E 036°39'0 0.0
2017-Dec-07 14:28N 45°29' E 036°39'0 0.0
2017-Dec-07 13:58N 45°29' E 036°39'0 0.0
2017-Dec-07 13:22N 45°29' E 036°39'0 0.0
2017-Dec-07 12:58N 45°29' E 036°39'0 0.0
2017-Dec-07 12:28N 45°29' E 036°39'0 0.0
2017-Dec-07 11:58N 45°29' E 036°39'0 0.0
2017-Dec-07 11:28N 45°29' E 036°39'0 0.0
2017-Dec-07 10:58N 45°29' E 036°39'0 0.0
2017-Dec-07 10:28N 45°29' E 036°39'0 0.3
2017-Dec-07 10:00N 45°28' E 036°40'3 5.3
2017-Dec-07 09:29N 45°30' E 036°43'3 5.7
2017-Dec-07 09:00N 45°32' E 036°45'  
Track history (hours):
 
Tides and Currents Weather Stations Pressure Air Temp Water Temp Dewpoint Dewpoint Depression Visibility Wind Speed Wind Dir Waves Ship Positions

Tanais

Last reported at 2017-Dec-08 08:54 UTC. Time now 2017-Dec-17 21:55 UTC.
Position N 45°12' E 036°28'.
Warning: this ship's position is 9 days out of date.

Length 139 m; draft 3.9 m.

Type: Cargo ship. MMSI: 273330220.

Date/timePositionNaut miles runAvg speedWind from/ knotsBaromVisibWave heightAir tempDewpointWater temp
2017-Dec-08 08:54N 45°12' E 036°28'3 6.7
2017-Dec-08 08:25N 45°15' E 036°28'3 6.1
2017-Dec-08 07:56N 45°18' E 036°29'3 5.9
2017-Dec-08 07:30N 45°19' E 036°32'3 6.2
2017-Dec-08 07:00N 45°20' E 036°36'3 6.0
2017-Dec-08 06:30N 45°22' E 036°40'3 6.2
2017-Dec-08 06:00N 45°25' E 036°41'2 4.7
2017-Dec-08 05:30N 45°27' E 036°40'2 3.0
2017-Dec-08 04:59N 45°29' E 036°39'0 0.0
2017-Dec-08 04:29N 45°29' E 036°39'0 0.0
2017-Dec-08 03:56N 45°29' E 036°39'0 0.0
2017-Dec-08 03:26N 45°29' E 036°39'0 0.0
2017-Dec-08 02:59N 45°29' E 036°39'0 0.0
2017-Dec-08 02:29N 45°29' E 036°39'0 0.0
2017-Dec-08 01:59N 45°29' E 036°39'0 0.0
2017-Dec-08 01:23N 45°29' E 036°39'0 0.0
2017-Dec-08 00:59N 45°29' E 036°39'0 0.0
2017-Dec-08 00:26N 45°29' E 036°39'0 0.0
2017-Dec-07 23:59N 45°29' E 036°39'0 0.0
2017-Dec-07 23:29N 45°29' E 036°39'0 0.0
2017-Dec-07 22:59N 45°29' E 036°39'0 0.0
2017-Dec-07 22:29N 45°29' E 036°39'0 0.0
2017-Dec-07 21:56N 45°29' E 036°39'0 0.0
2017-Dec-07 21:29N 45°29' E 036°39'0 0.0
2017-Dec-07 20:59N 45°29' E 036°39'0 0.0
2017-Dec-07 20:30N 45°29' E 036°39'0 0.0
2017-Dec-07 20:00N 45°29' E 036°39'0 0.0
2017-Dec-07 19:30N 45°29' E 036°39'0 0.0
2017-Dec-07 18:59N 45°29' E 036°39'0 0.0
2017-Dec-07 18:29N 45°29' E 036°39'0 0.0
2017-Dec-07 17:59N 45°29' E 036°39'0 0.0
2017-Dec-07 17:26N 45°29' E 036°39'0 0.0
2017-Dec-07 16:58N 45°29' E 036°39'0 0.0
2017-Dec-07 16:28N 45°29' E 036°39'0 0.0
2017-Dec-07 15:58N 45°29' E 036°39'0 0.0
2017-Dec-07 15:28N 45°29' E 036°39'0 0.0
2017-Dec-07 14:58N 45°29' E 036°39'0 0.0
2017-Dec-07 14:28N 45°29' E 036°39'0 0.0
2017-Dec-07 13:58N 45°29' E 036°39'0 0.0
2017-Dec-07 13:22N 45°29' E 036°39'0 0.0
2017-Dec-07 12:58N 45°29' E 036°39'0 0.0
2017-Dec-07 12:28N 45°29' E 036°39'0 0.0
2017-Dec-07 11:58N 45°29' E 036°39'0 0.0
2017-Dec-07 11:28N 45°29' E 036°39'0 0.0
2017-Dec-07 10:58N 45°29' E 036°39'0 0.0
2017-Dec-07 10:28N 45°29' E 036°39'0 0.3
2017-Dec-07 10:00N 45°28' E 036°40'3 5.3
2017-Dec-07 09:29N 45°30' E 036°43'3 5.7
2017-Dec-07 09:00N 45°32' E 036°45'  

Dump ship's entire track history